sensor_id;sensor_type;location;lat;lon;timestamp;temperature;humidity
67131;HTU21D;54051;53.464;49.532;2023-10-08T00:00:04;6.36;87.89
67131;HTU21D;54051;53.464;49.532;2023-10-08T00:02:50;6.29;87.93
67131;HTU21D;54051;53.464;49.532;2023-10-08T00:05:18;6.29;88.54
67131;HTU21D;54051;53.464;49.532;2023-10-08T00:07:44;6.35;89.18
67131;HTU21D;54051;53.464;49.532;2023-10-08T00:10:10;6.33;87.76
67131;HTU21D;54051;53.464;49.532;2023-10-08T00:12:38;6.34;87.37
67131;HTU21D;54051;53.464;49.532;2023-10-08T00:15:04;6.38;87.96
67131;HTU21D;54051;53.464;49.532;2023-10-08T00:17:35;6.44;88.68
67131;HTU21D;54051;53.464;49.532;2023-10-08T00:20:01;6.40;88.52
67131;HTU21D;54051;53.464;49.532;2023-10-08T00:22:29;6.39;87.88
67131;HTU21D;54051;53.464;49.532;2023-10-08T00:25:01;6.42;88.51
67131;HTU21D;54051;53.464;49.532;2023-10-08T00:27:27;6.43;87.35
67131;HTU21D;54051;53.464;49.532;2023-10-08T00:29:53;6.45;88.15
67131;HTU21D;54051;53.464;49.532;2023-10-08T00:32:22;6.50;88.96
67131;HTU21D;54051;53.464;49.532;2023-10-08T00:34:48;6.50;89.02
67131;HTU21D;54051;53.464;49.532;2023-10-08T00:37:14;6.54;89.29
67131;HTU21D;54051;53.464;49.532;2023-10-08T00:39:41;6.58;88.67
67131;HTU21D;54051;53.464;49.532;2023-10-08T00:42:07;6.56;88.51
67131;HTU21D;54051;53.464;49.532;2023-10-08T00:44:34;6.53;88.03
67131;HTU21D;54051;53.464;49.532;2023-10-08T00:47:07;6.51;87.80
67131;HTU21D;54051;53.464;49.532;2023-10-08T00:49:34;6.52;87.65
67131;HTU21D;54051;53.464;49.532;2023-10-08T00:52:08;6.61;89.64
67131;HTU21D;54051;53.464;49.532;2023-10-08T00:54:37;6.57;88.54
67131;HTU21D;54051;53.464;49.532;2023-10-08T00:57:25;6.59;89.32
67131;HTU21D;54051;53.464;49.532;2023-10-08T00:59:51;6.58;88.83
67131;HTU21D;54051;53.464;49.532;2023-10-08T01:02:22;6.54;89.19
67131;HTU21D;54051;53.464;49.532;2023-10-08T01:04:50;6.56;89.25
67131;HTU21D;54051;53.464;49.532;2023-10-08T01:07:16;6.60;90.05
67131;HTU21D;54051;53.464;49.532;2023-10-08T01:09:43;6.58;89.83
67131;HTU21D;54051;53.464;49.532;2023-10-08T01:12:17;6.58;90.09
67131;HTU21D;54051;53.464;49.532;2023-10-08T01:14:53;6.66;91.24
67131;HTU21D;54051;53.464;49.532;2023-10-08T01:17:20;6.66;90.66
67131;HTU21D;54051;53.464;49.532;2023-10-08T01:19:50;6.60;90.82
67131;HTU21D;54051;53.464;49.532;2023-10-08T01:22:20;6.60;90.50
67131;HTU21D;54051;53.464;49.532;2023-10-08T01:24:48;6.67;91.01
67131;HTU21D;54051;53.464;49.532;2023-10-08T01:27:15;6.75;91.43
67131;HTU21D;54051;53.464;49.532;2023-10-08T01:29:47;6.75;90.50
67131;HTU21D;54051;53.464;49.532;2023-10-08T01:32:15;6.83;90.71
67131;HTU21D;54051;53.464;49.532;2023-10-08T01:34:42;6.76;91.53
67131;HTU21D;54051;53.464;49.532;2023-10-08T01:37:14;6.74;91.55
67131;HTU21D;54051;53.464;49.532;2023-10-08T01:39:43;6.75;91.78
67131;HTU21D;54051;53.464;49.532;2023-10-08T01:42:08;6.86;92.26
67131;HTU21D;54051;53.464;49.532;2023-10-08T01:44:46;6.83;91.36
67131;HTU21D;54051;53.464;49.532;2023-10-08T01:47:13;6.87;91.36
67131;HTU21D;54051;53.464;49.532;2023-10-08T01:49:39;6.83;90.24
67131;HTU21D;54051;53.464;49.532;2023-10-08T01:52:06;6.90;90.50
67131;HTU21D;54051;53.464;49.532;2023-10-08T01:54:38;7.00;90.80
67131;HTU21D;54051;53.464;49.532;2023-10-08T01:57:05;7.02;90.63
67131;HTU21D;54051;53.464;49.532;2023-10-08T01:59:31;7.04;91.01
67131;HTU21D;54051;53.464;49.532;2023-10-08T02:01:58;7.08;90.76
67131;HTU21D;54051;53.464;49.532;2023-10-08T02:04:24;7.09;90.31
67131;HTU21D;54051;53.464;49.532;2023-10-08T02:06:50;7.07;89.82
67131;HTU21D;54051;53.464;49.532;2023-10-08T02:09:16;7.11;90.50
67131;HTU21D;54051;53.464;49.532;2023-10-08T02:11:43;7.14;91.02
67131;HTU21D;54051;53.464;49.532;2023-10-08T02:14:10;7.15;91.00
67131;HTU21D;54051;53.464;49.532;2023-10-08T02:16:36;7.18;91.30
67131;HTU21D;54051;53.464;49.532;2023-10-08T02:19:03;7.22;90.88
67131;HTU21D;54051;53.464;49.532;2023-10-08T02:21:29;7.25;91.12
67131;HTU21D;54051;53.464;49.532;2023-10-08T02:23:57;7.27;90.18
67131;HTU21D;54051;53.464;49.532;2023-10-08T02:26:22;7.32;90.39
67131;HTU21D;54051;53.464;49.532;2023-10-08T02:28:49;7.39;90.90
67131;HTU21D;54051;53.464;49.532;2023-10-08T02:31:17;7.32;89.89
67131;HTU21D;54051;53.464;49.532;2023-10-08T02:33:43;7.35;90.78
67131;HTU21D;54051;53.464;49.532;2023-10-08T02:36:09;7.37;90.47
67131;HTU21D;54051;53.464;49.532;2023-10-08T02:38:36;7.47;91.61
67131;HTU21D;54051;53.464;49.532;2023-10-08T02:41:04;7.41;91.52
67131;HTU21D;54051;53.464;49.532;2023-10-08T02:43:32;7.45;92.06
67131;HTU21D;54051;53.464;49.532;2023-10-08T02:46:00;7.45;92.05
67131;HTU21D;54051;53.464;49.532;2023-10-08T02:48:26;7.46;92.18
67131;HTU21D;54051;53.464;49.532;2023-10-08T02:50:52;7.53;92.11
67131;HTU21D;54051;53.464;49.532;2023-10-08T02:53:20;7.57;92.17
67131;HTU21D;54051;53.464;49.532;2023-10-08T02:55:51;7.64;92.05
67131;HTU21D;54051;53.464;49.532;2023-10-08T02:58:17;7.72;92.31
67131;HTU21D;54051;53.464;49.532;2023-10-08T03:00:47;7.72;91.89
67131;HTU21D;54051;53.464;49.532;2023-10-08T03:03:14;7.76;92.38
67131;HTU21D;54051;53.464;49.532;2023-10-08T03:05:44;7.74;92.76
67131;HTU21D;54051;53.464;49.532;2023-10-08T03:08:15;7.79;92.81
67131;HTU21D;54051;53.464;49.532;2023-10-08T03:10:45;7.86;92.27
67131;HTU21D;54051;53.464;49.532;2023-10-08T03:13:11;7.97;92.59
67131;HTU21D;54051;53.464;49.532;2023-10-08T03:15:40;7.96;91.82
67131;HTU21D;54051;53.464;49.532;2023-10-08T03:18:12;8.07;92.90
67131;HTU21D;54051;53.464;49.532;2023-10-08T03:20:43;8.07;92.75
67131;HTU21D;54051;53.464;49.532;2023-10-08T03:23:10;8.15;92.53
67131;HTU21D;54051;53.464;49.532;2023-10-08T03:28:22;8.21;93.54
67131;HTU21D;54051;53.464;49.532;2023-10-08T03:30:59;8.20;93.74
67131;HTU21D;54051;53.464;49.532;2023-10-08T03:33:31;8.28;94.05
67131;HTU21D;54051;53.464;49.532;2023-10-08T03:36:03;8.34;94.17
67131;HTU21D;54051;53.464;49.532;2023-10-08T03:38:50;8.44;93.78
67131;HTU21D;54051;53.464;49.532;2023-10-08T03:41:16;8.50;93.21
67131;HTU21D;54051;53.464;49.532;2023-10-08T03:43:44;8.60;92.89
67131;HTU21D;54051;53.464;49.532;2023-10-08T03:46:21;8.64;92.25
67131;HTU21D;54051;53.464;49.532;2023-10-08T03:48:49;8.68;91.46
67131;HTU21D;54051;53.464;49.532;2023-10-08T03:51:20;8.80;91.22
67131;HTU21D;54051;53.464;49.532;2023-10-08T03:53:49;8.91;91.43
67131;HTU21D;54051;53.464;49.532;2023-10-08T03:56:25;9.03;91.21
67131;HTU21D;54051;53.464;49.532;2023-10-08T03:58:51;9.20;91.60
67131;HTU21D;54051;53.464;49.532;2023-10-08T04:01:20;9.38;91.52
67131;HTU21D;54051;53.464;49.532;2023-10-08T04:03:46;9.42;90.82
67131;HTU21D;54051;53.464;49.532;2023-10-08T04:06:21;9.47;90.98
67131;HTU21D;54051;53.464;49.532;2023-10-08T04:09:00;9.53;90.89
67131;HTU21D;54051;53.464;49.532;2023-10-08T04:11:35;9.66;91.11
67131;HTU21D;54051;53.464;49.532;2023-10-08T04:14:01;9.79;91.33
67131;HTU21D;54051;53.464;49.532;2023-10-08T04:16:28;9.88;90.79
67131;HTU21D;54051;53.464;49.532;2023-10-08T04:18:55;9.97;90.42
67131;HTU21D;54051;53.464;49.532;2023-10-08T04:21:29;10.09;89.57
67131;HTU21D;54051;53.464;49.532;2023-10-08T04:23:55;10.30;89.03
67131;HTU21D;54051;53.464;49.532;2023-10-08T04:26:23;10.38;87.51
67131;HTU21D;54051;53.464;49.532;2023-10-08T04:28:56;10.45;87.63
67131;HTU21D;54051;53.464;49.532;2023-10-08T04:31:42;10.58;87.36
67131;HTU21D;54051;53.464;49.532;2023-10-08T04:34:12;10.90;85.93
67131;HTU21D;54051;53.464;49.532;2023-10-08T04:36:45;11.23;83.56
67131;HTU21D;54051;53.464;49.532;2023-10-08T04:39:11;12.63;78.37
67131;HTU21D;54051;53.464;49.532;2023-10-08T04:41:47;11.85;80.01
67131;HTU21D;54051;53.464;49.532;2023-10-08T04:44:18;11.02;84.15
67131;HTU21D;54051;53.464;49.532;2023-10-08T04:46:44;10.74;88.44
67131;HTU21D;54051;53.464;49.532;2023-10-08T04:49:10;10.63;88.10
67131;HTU21D;54051;53.464;49.532;2023-10-08T04:51:53;10.59;88.51
67131;HTU21D;54051;53.464;49.532;2023-10-08T04:54:28;10.52;87.59
67131;HTU21D;54051;53.464;49.532;2023-10-08T04:56:58;10.52;88.83
67131;HTU21D;54051;53.464;49.532;2023-10-08T04:59:25;10.58;86.77
67131;HTU21D;54051;53.464;49.532;2023-10-08T05:01:58;10.70;85.06
67131;HTU21D;54051;53.464;49.532;2023-10-08T05:04:42;10.86;84.51
67131;HTU21D;54051;53.464;49.532;2023-10-08T05:07:25;10.96;84.03
67131;HTU21D;54051;53.464;49.532;2023-10-08T05:10:09;11.03;80.96
67131;HTU21D;54051;53.464;49.532;2023-10-08T05:12:35;11.12;81.03
67131;HTU21D;54051;53.464;49.532;2023-10-08T05:15:16;11.20;80.88
67131;HTU21D;54051;53.464;49.532;2023-10-08T05:17:43;11.31;81.62
67131;HTU21D;54051;53.464;49.532;2023-10-08T05:20:23;11.45;77.70
67131;HTU21D;54051;53.464;49.532;2023-10-08T05:23:09;11.61;77.53
67131;HTU21D;54051;53.464;49.532;2023-10-08T05:25:53;11.71;76.28
67131;HTU21D;54051;53.464;49.532;2023-10-08T05:28:39;11.89;73.09
67131;HTU21D;54051;53.464;49.532;2023-10-08T05:31:24;12.14;70.99
67131;HTU21D;54051;53.464;49.532;2023-10-08T05:34:13;12.22;72.40
67131;HTU21D;54051;53.464;49.532;2023-10-08T05:36:58;12.35;71.01
67131;HTU21D;54051;53.464;49.532;2023-10-08T05:39:30;12.76;70.60
67131;HTU21D;54051;53.464;49.532;2023-10-08T05:42:16;13.18;68.71
67131;HTU21D;54051;53.464;49.532;2023-10-08T05:44:46;15.23;61.37
67131;HTU21D;54051;53.464;49.532;2023-10-08T05:47:31;17.54;54.26
67131;HTU21D;54051;53.464;49.532;2023-10-08T05:49:57;20.99;43.89
67131;HTU21D;54051;53.464;49.532;2023-10-08T05:52:45;23.28;38.35
67131;HTU21D;54051;53.464;49.532;2023-10-08T05:55:24;23.40;36.51
67131;HTU21D;54051;53.464;49.532;2023-10-08T05:58:14;20.59;44.50
67131;HTU21D;54051;53.464;49.532;2023-10-08T06:00:43;17.29;53.21
67131;HTU21D;54051;53.464;49.532;2023-10-08T06:03:30;15.02;60.43
67131;HTU21D;54051;53.464;49.532;2023-10-08T06:06:06;13.94;66.54
67131;HTU21D;54051;53.464;49.532;2023-10-08T06:08:42;13.32;69.12
67131;HTU21D;54051;53.464;49.532;2023-10-08T06:11:37;13.25;67.23
67131;HTU21D;54051;53.464;49.532;2023-10-08T06:14:23;13.43;67.39
67131;HTU21D;54051;53.464;49.532;2023-10-08T06:17:15;14.70;63.97
67131;HTU21D;54051;53.464;49.532;2023-10-08T06:20:00;18.52;51.53
67131;HTU21D;54051;53.464;49.532;2023-10-08T06:22:27;18.94;48.57
67131;HTU21D;54051;53.464;49.532;2023-10-08T06:24:53;15.99;56.39
67131;HTU21D;54051;53.464;49.532;2023-10-08T06:27:39;13.78;65.34
67131;HTU21D;54051;53.464;49.532;2023-10-08T06:30:06;12.87;67.37
67131;HTU21D;54051;53.464;49.532;2023-10-08T06:32:32;12.55;69.25
67131;HTU21D;54051;53.464;49.532;2023-10-08T06:34:58;12.48;70.46
67131;HTU21D;54051;53.464;49.532;2023-10-08T06:37:28;12.90;69.27
67131;HTU21D;54051;53.464;49.532;2023-10-08T06:39:54;13.66;66.22
67131;HTU21D;54051;53.464;49.532;2023-10-08T06:42:23;13.37;65.78
67131;HTU21D;54051;53.464;49.532;2023-10-08T06:44:53;13.11;67.93
67131;HTU21D;54051;53.464;49.532;2023-10-08T06:47:23;12.97;68.61
67131;HTU21D;54051;53.464;49.532;2023-10-08T06:49:49;12.80;69.71
67131;HTU21D;54051;53.464;49.532;2023-10-08T06:52:17;12.95;67.71
67131;HTU21D;54051;53.464;49.532;2023-10-08T06:54:48;13.31;68.34
67131;HTU21D;54051;53.464;49.532;2023-10-08T06:57:14;16.40;57.61
67131;HTU21D;54051;53.464;49.532;2023-10-08T06:59:40;16.27;53.97
67131;HTU21D;54051;53.464;49.532;2023-10-08T07:02:08;14.63;58.97
67131;HTU21D;54051;53.464;49.532;2023-10-08T07:04:35;13.49;65.39
67131;HTU21D;54051;53.464;49.532;2023-10-08T07:07:01;13.12;66.52
67131;HTU21D;54051;53.464;49.532;2023-10-08T07:09:27;16.32;55.36
67131;HTU21D;54051;53.464;49.532;2023-10-08T07:11:54;15.57;55.31
67131;HTU21D;54051;53.464;49.532;2023-10-08T07:14:23;14.41;59.96
67131;HTU21D;54051;53.464;49.532;2023-10-08T07:16:56;13.70;62.10
67131;HTU21D;54051;53.464;49.532;2023-10-08T07:19:27;13.19;65.37
67131;HTU21D;54051;53.464;49.532;2023-10-08T07:22:07;14.92;57.26
67131;HTU21D;54051;53.464;49.532;2023-10-08T07:24:43;14.82;57.66
67131;HTU21D;54051;53.464;49.532;2023-10-08T07:27:16;13.99;59.99
67131;HTU21D;54051;53.464;49.532;2023-10-08T07:29:47;13.31;63.09
67131;HTU21D;54051;53.464;49.532;2023-10-08T07:32:13;13.36;64.43
67131;HTU21D;54051;53.464;49.532;2023-10-08T07:34:44;13.93;60.71
67131;HTU21D;54051;53.464;49.532;2023-10-08T07:37:10;14.27;58.20
67131;HTU21D;54051;53.464;49.532;2023-10-08T07:39:37;15.53;54.53
67131;HTU21D;54051;53.464;49.532;2023-10-08T07:42:10;18.67;45.32
67131;HTU21D;54051;53.464;49.532;2023-10-08T07:44:36;19.26;41.38
67131;HTU21D;54051;53.464;49.532;2023-10-08T07:47:04;17.13;49.21
67131;HTU21D;54051;53.464;49.532;2023-10-08T07:49:31;18.26;46.63
67131;HTU21D;54051;53.464;49.532;2023-10-08T07:51:58;17.25;46.49
67131;HTU21D;54051;53.464;49.532;2023-10-08T07:54:25;15.99;51.09
67131;HTU21D;54051;53.464;49.532;2023-10-08T07:56:53;14.98;54.29
67131;HTU21D;54051;53.464;49.532;2023-10-08T07:59:40;16.63;48.34
67131;HTU21D;54051;53.464;49.532;2023-10-08T08:02:13;16.78;48.95
67131;HTU21D;54051;53.464;49.532;2023-10-08T08:04:42;15.86;51.33
67131;HTU21D;54051;53.464;49.532;2023-10-08T08:07:16;15.52;52.73
67131;HTU21D;54051;53.464;49.532;2023-10-08T08:09:43;14.19;61.62
67131;HTU21D;54051;53.464;49.532;2023-10-08T08:12:19;13.48;61.08
67131;HTU21D;54051;53.464;49.532;2023-10-08T08:14:47;13.46;60.12
67131;HTU21D;54051;53.464;49.532;2023-10-08T08:17:14;16.00;55.84
67131;HTU21D;54051;53.464;49.532;2023-10-08T08:19:41;16.04;55.09
67131;HTU21D;54051;53.464;49.532;2023-10-08T08:22:07;15.58;58.10
67131;HTU21D;54051;53.464;49.532;2023-10-08T08:24:33;15.16;61.49
67131;HTU21D;54051;53.464;49.532;2023-10-08T08:27:03;16.39;57.51
67131;HTU21D;54051;53.464;49.532;2023-10-08T08:29:40;17.74;52.22
67131;HTU21D;54051;53.464;49.532;2023-10-08T08:32:15;19.44;46.82
67131;HTU21D;54051;53.464;49.532;2023-10-08T08:34:44;19.82;45.52
67131;HTU21D;54051;53.464;49.532;2023-10-08T08:37:13;19.51;45.29
67131;HTU21D;54051;53.464;49.532;2023-10-08T08:39:42;19.46;45.53
67131;HTU21D;54051;53.464;49.532;2023-10-08T08:42:08;18.62;47.86
67131;HTU21D;54051;53.464;49.532;2023-10-08T08:44:35;21.30;40.47
67131;HTU21D;54051;53.464;49.532;2023-10-08T08:47:05;20.96;37.82
67131;HTU21D;54051;53.464;49.532;2023-10-08T08:49:32;17.65;45.40
67131;HTU21D;54051;53.464;49.532;2023-10-08T08:52:03;17.28;47.67
67131;HTU21D;54051;53.464;49.532;2023-10-08T08:54:29;17.31;45.06
67131;HTU21D;54051;53.464;49.532;2023-10-08T08:57:03;16.67;46.33
67131;HTU21D;54051;53.464;49.532;2023-10-08T08:59:30;16.14;47.71
67131;HTU21D;54051;53.464;49.532;2023-10-08T09:01:59;15.65;51.48
67131;HTU21D;54051;53.464;49.532;2023-10-08T09:04:29;15.14;52.35
67131;HTU21D;54051;53.464;49.532;2023-10-08T09:06:56;14.81;51.24
67131;HTU21D;54051;53.464;49.532;2023-10-08T09:09:22;14.54;53.49
67131;HTU21D;54051;53.464;49.532;2023-10-08T09:11:52;14.49;52.55
67131;HTU21D;54051;53.464;49.532;2023-10-08T09:14:19;14.29;54.59
67131;HTU21D;54051;53.464;49.532;2023-10-08T09:16:45;14.60;54.56
67131;HTU21D;54051;53.464;49.532;2023-10-08T09:19:12;14.25;53.32
67131;HTU21D;54051;53.464;49.532;2023-10-08T09:22:03;14.19;53.49
67131;HTU21D;54051;53.464;49.532;2023-10-08T09:24:36;14.45;54.43
67131;HTU21D;54051;53.464;49.532;2023-10-08T09:27:06;14.50;50.95
67131;HTU21D;54051;53.464;49.532;2023-10-08T09:29:35;14.38;51.45
67131;HTU21D;54051;53.464;49.532;2023-10-08T09:32:05;14.21;50.24
67131;HTU21D;54051;53.464;49.532;2023-10-08T09:34:32;14.51;51.94
67131;HTU21D;54051;53.464;49.532;2023-10-08T09:36:58;14.99;55.11
67131;HTU21D;54051;53.464;49.532;2023-10-08T09:39:28;14.89;57.72
67131;HTU21D;54051;53.464;49.532;2023-10-08T09:41:56;14.71;59.38
67131;HTU21D;54051;53.464;49.532;2023-10-08T09:44:22;14.62;57.71
67131;HTU21D;54051;53.464;49.532;2023-10-08T09:46:57;14.89;58.82
67131;HTU21D;54051;53.464;49.532;2023-10-08T09:49:46;15.14;57.32
67131;HTU21D;54051;53.464;49.532;2023-10-08T09:52:15;15.27;55.45
67131;HTU21D;54051;53.464;49.532;2023-10-08T09:54:43;15.60;54.35
67131;HTU21D;54051;53.464;49.532;2023-10-08T09:57:10;15.73;49.72
67131;HTU21D;54051;53.464;49.532;2023-10-08T09:59:36;15.38;47.98
67131;HTU21D;54051;53.464;49.532;2023-10-08T10:02:03;15.09;48.02
67131;HTU21D;54051;53.464;49.532;2023-10-08T10:04:30;14.81;49.18
67131;HTU21D;54051;53.464;49.532;2023-10-08T10:06:58;14.69;53.66
67131;HTU21D;54051;53.464;49.532;2023-10-08T10:09:24;14.54;54.87
67131;HTU21D;54051;53.464;49.532;2023-10-08T10:11:52;14.26;55.42
67131;HTU21D;54051;53.464;49.532;2023-10-08T10:14:22;14.09;57.16
67131;HTU21D;54051;53.464;49.532;2023-10-08T10:16:49;14.20;53.91
67131;HTU21D;54051;53.464;49.532;2023-10-08T10:19:30;13.81;54.87
67131;HTU21D;54051;53.464;49.532;2023-10-08T10:21:56;13.54;54.92
67131;HTU21D;54051;53.464;49.532;2023-10-08T10:24:28;13.49;56.36
67131;HTU21D;54051;53.464;49.532;2023-10-08T10:27:09;13.35;56.39
67131;HTU21D;54051;53.464;49.532;2023-10-08T10:29:36;13.03;57.61
67131;HTU21D;54051;53.464;49.532;2023-10-08T10:32:02;12.99;56.34
67131;HTU21D;54051;53.464;49.532;2023-10-08T10:34:31;12.87;55.02
67131;HTU21D;54051;53.464;49.532;2023-10-08T10:37:00;12.94;57.21
67131;HTU21D;54051;53.464;49.532;2023-10-08T10:39:54;12.85;56.29
67131;HTU21D;54051;53.464;49.532;2023-10-08T10:42:27;12.75;56.58
67131;HTU21D;54051;53.464;49.532;2023-10-08T10:44:54;12.62;55.86
67131;HTU21D;54051;53.464;49.532;2023-10-08T10:47:25;12.55;54.58
67131;HTU21D;54051;53.464;49.532;2023-10-08T10:50:11;12.53;55.58
67131;HTU21D;54051;53.464;49.532;2023-10-08T10:52:57;12.55;55.24
67131;HTU21D;54051;53.464;49.532;2023-10-08T10:55:23;12.51;54.34
67131;HTU21D;54051;53.464;49.532;2023-10-08T10:57:57;12.49;56.95
67131;HTU21D;54051;53.464;49.532;2023-10-08T11:00:30;12.55;55.29
67131;HTU21D;54051;53.464;49.532;2023-10-08T11:03:00;12.56;57.35
67131;HTU21D;54051;53.464;49.532;2023-10-08T11:05:33;12.51;55.04
67131;HTU21D;54051;53.464;49.532;2023-10-08T11:08:03;12.46;58.09
67131;HTU21D;54051;53.464;49.532;2023-10-08T11:10:31;12.58;54.36
67131;HTU21D;54051;53.464;49.532;2023-10-08T11:13:20;12.74;54.75
67131;HTU21D;54051;53.464;49.532;2023-10-08T11:15:47;12.76;53.86
67131;HTU21D;54051;53.464;49.532;2023-10-08T11:18:19;12.74;52.82
67131;HTU21D;54051;53.464;49.532;2023-10-08T11:20:46;12.78;53.02
67131;HTU21D;54051;53.464;49.532;2023-10-08T11:23:33;12.82;52.62
67131;HTU21D;54051;53.464;49.532;2023-10-08T11:26:00;12.88;53.32
67131;HTU21D;54051;53.464;49.532;2023-10-08T11:28:38;12.88;55.92
67131;HTU21D;54051;53.464;49.532;2023-10-08T11:31:09;12.97;53.27
67131;HTU21D;54051;53.464;49.532;2023-10-08T11:33:36;12.88;53.92
67131;HTU21D;54051;53.464;49.532;2023-10-08T11:36:02;12.77;53.39
67131;HTU21D;54051;53.464;49.532;2023-10-08T11:38:41;12.66;55.84
67131;HTU21D;54051;53.464;49.532;2023-10-08T11:41:13;12.69;56.84
67131;HTU21D;54051;53.464;49.532;2023-10-08T11:43:49;12.71;54.59
67131;HTU21D;54051;53.464;49.532;2023-10-08T11:46:31;12.61;55.60
67131;HTU21D;54051;53.464;49.532;2023-10-08T11:49:04;12.60;54.36
67131;HTU21D;54051;53.464;49.532;2023-10-08T11:51:31;12.56;54.85
67131;HTU21D;54051;53.464;49.532;2023-10-08T11:53:58;12.50;54.09
67131;HTU21D;54051;53.464;49.532;2023-10-08T11:56:29;12.50;55.33
67131;HTU21D;54051;53.464;49.532;2023-10-08T11:58:55;12.46;58.61
67131;HTU21D;54051;53.464;49.532;2023-10-08T12:01:25;12.20;55.74
67131;HTU21D;54051;53.464;49.532;2023-10-08T12:03:53;11.73;58.99
67131;HTU21D;54051;53.464;49.532;2023-10-08T12:06:25;11.34;61.46
67131;HTU21D;54051;53.464;49.532;2023-10-08T12:08:55;10.62;67.66
67131;HTU21D;54051;53.464;49.532;2023-10-08T12:11:24;10.12;67.00
67131;HTU21D;54051;53.464;49.532;2023-10-08T12:13:57;9.85;66.58
67131;HTU21D;54051;53.464;49.532;2023-10-08T12:16:25;9.99;63.27
67131;HTU21D;54051;53.464;49.532;2023-10-08T12:18:55;10.53;63.87
67131;HTU21D;54051;53.464;49.532;2023-10-08T12:21:25;11.00;59.01
67131;HTU21D;54051;53.464;49.532;2023-10-08T12:23:52;11.34;56.48
67131;HTU21D;54051;53.464;49.532;2023-10-08T12:26:20;11.55;57.39
67131;HTU21D;54051;53.464;49.532;2023-10-08T12:28:48;11.62;55.87
67131;HTU21D;54051;53.464;49.532;2023-10-08T12:31:15;11.63;61.20
67131;HTU21D;54051;53.464;49.532;2023-10-08T12:33:41;11.61;58.97
67131;HTU21D;54051;53.464;49.532;2023-10-08T12:36:10;11.49;59.54
67131;HTU21D;54051;53.464;49.532;2023-10-08T12:38:37;11.41;60.20
67131;HTU21D;54051;53.464;49.532;2023-10-08T12:41:03;11.43;60.46
67131;HTU21D;54051;53.464;49.532;2023-10-08T12:43:38;11.44;60.95
67131;HTU21D;54051;53.464;49.532;2023-10-08T12:46:05;11.49;60.79
67131;HTU21D;54051;53.464;49.532;2023-10-08T12:48:36;11.57;60.43
67131;HTU21D;54051;53.464;49.532;2023-10-08T12:51:04;11.59;60.22
67131;HTU21D;54051;53.464;49.532;2023-10-08T12:53:32;11.62;60.90
67131;HTU21D;54051;53.464;49.532;2023-10-08T12:56:05;11.62;60.82
67131;HTU21D;54051;53.464;49.532;2023-10-08T12:58:33;11.47;59.90
67131;HTU21D;54051;53.464;49.532;2023-10-08T13:01:05;11.38;62.53
67131;HTU21D;54051;53.464;49.532;2023-10-08T13:03:33;11.30;62.31
67131;HTU21D;54051;53.464;49.532;2023-10-08T13:05:59;11.24;62.22
67131;HTU21D;54051;53.464;49.532;2023-10-08T13:08:31;11.24;61.35
67131;HTU21D;54051;53.464;49.532;2023-10-08T13:10:58;11.24;61.09
67131;HTU21D;54051;53.464;49.532;2023-10-08T13:13:27;11.26;61.57
67131;HTU21D;54051;53.464;49.532;2023-10-08T13:15:54;11.34;62.34
67131;HTU21D;54051;53.464;49.532;2023-10-08T13:18:22;11.39;58.94
67131;HTU21D;54051;53.464;49.532;2023-10-08T13:20:52;11.42;59.57
67131;HTU21D;54051;53.464;49.532;2023-10-08T13:23:21;11.45;59.82
67131;HTU21D;54051;53.464;49.532;2023-10-08T13:25:49;11.46;59.75
67131;HTU21D;54051;53.464;49.532;2023-10-08T13:28:37;11.43;61.04
67131;HTU21D;54051;53.464;49.532;2023-10-08T13:31:05;11.28;58.29
67131;HTU21D;54051;53.464;49.532;2023-10-08T13:33:38;11.15;61.47
67131;HTU21D;54051;53.464;49.532;2023-10-08T13:36:05;10.71;63.83
67131;HTU21D;54051;53.464;49.532;2023-10-08T13:38:34;10.45;65.75
67131;HTU21D;54051;53.464;49.532;2023-10-08T13:41:01;10.35;65.15
67131;HTU21D;54051;53.464;49.532;2023-10-08T13:43:45;10.23;67.69
67131;HTU21D;54051;53.464;49.532;2023-10-08T13:46:12;10.19;67.74
67131;HTU21D;54051;53.464;49.532;2023-10-08T13:48:39;10.13;66.26
67131;HTU21D;54051;53.464;49.532;2023-10-08T13:51:06;10.10;66.17
67131;HTU21D;54051;53.464;49.532;2023-10-08T13:53:42;10.15;68.51
67131;HTU21D;54051;53.464;49.532;2023-10-08T13:56:11;10.26;69.16
67131;HTU21D;54051;53.464;49.532;2023-10-08T13:58:37;10.34;66.15
67131;HTU21D;54051;53.464;49.532;2023-10-08T14:01:39;10.44;65.81
67131;HTU21D;54051;53.464;49.532;2023-10-08T14:04:08;10.48;65.94
67131;HTU21D;54051;53.464;49.532;2023-10-08T14:06:38;10.60;64.82
67131;HTU21D;54051;53.464;49.532;2023-10-08T14:09:14;10.63;67.98
67131;HTU21D;54051;53.464;49.532;2023-10-08T14:11:47;10.73;66.81
67131;HTU21D;54051;53.464;49.532;2023-10-08T14:14:13;10.75;63.61
67131;HTU21D;54051;53.464;49.532;2023-10-08T14:16:42;10.74;65.48
67131;HTU21D;54051;53.464;49.532;2023-10-08T14:19:11;10.59;65.56
67131;HTU21D;54051;53.464;49.532;2023-10-08T14:21:40;10.51;65.17
67131;HTU21D;54051;53.464;49.532;2023-10-08T14:24:19;10.50;68.87
67131;HTU21D;54051;53.464;49.532;2023-10-08T14:26:46;10.50;66.43
67131;HTU21D;54051;53.464;49.532;2023-10-08T14:29:20;10.49;65.68
67131;HTU21D;54051;53.464;49.532;2023-10-08T14:31:46;10.50;66.19
67131;HTU21D;54051;53.464;49.532;2023-10-08T14:34:15;10.51;66.04
67131;HTU21D;54051;53.464;49.532;2023-10-08T14:36:43;10.44;63.90
67131;HTU21D;54051;53.464;49.532;2023-10-08T14:39:28;10.35;65.66
67131;HTU21D;54051;53.464;49.532;2023-10-08T14:42:12;10.29;67.02
67131;HTU21D;54051;53.464;49.532;2023-10-08T14:44:57;10.20;66.24
67131;HTU21D;54051;53.464;49.532;2023-10-08T14:47:26;10.21;66.85
67131;HTU21D;54051;53.464;49.532;2023-10-08T14:49:52;10.20;63.69
67131;HTU21D;54051;53.464;49.532;2023-10-08T14:52:20;10.19;64.56
67131;HTU21D;54051;53.464;49.532;2023-10-08T14:54:46;10.18;65.14
67131;HTU21D;54051;53.464;49.532;2023-10-08T14:57:15;10.14;63.89
67131;HTU21D;54051;53.464;49.532;2023-10-08T14:59:44;10.10;63.92
67131;HTU21D;54051;53.464;49.532;2023-10-08T15:02:12;10.05;64.10
67131;HTU21D;54051;53.464;49.532;2023-10-08T15:04:39;10.00;66.82
67131;HTU21D;54051;53.464;49.532;2023-10-08T15:07:06;9.99;65.26
67131;HTU21D;54051;53.464;49.532;2023-10-08T15:09:39;9.95;64.44
67131;HTU21D;54051;53.464;49.532;2023-10-08T15:12:05;9.90;63.99
67131;HTU21D;54051;53.464;49.532;2023-10-08T15:14:38;9.88;68.80
67131;HTU21D;54051;53.464;49.532;2023-10-08T15:17:07;9.85;69.05
67131;HTU21D;54051;53.464;49.532;2023-10-08T15:19:35;9.74;64.97
67131;HTU21D;54051;53.464;49.532;2023-10-08T15:22:01;9.60;66.98
67131;HTU21D;54051;53.464;49.532;2023-10-08T15:24:28;9.62;69.01
67131;HTU21D;54051;53.464;49.532;2023-10-08T15:26:55;9.67;66.69
67131;HTU21D;54051;53.464;49.532;2023-10-08T15:29:21;9.68;65.14